Terminal Aerodrome Forecast
Issued by NWS Sterling, VA

Current Version | Previous Version | Text Only | Print | Product List | Glossary Off
Versions: 1 2 3 4 5 6 7 8 9 10 11 12 13 14 15 16

000
FTUS41 KLWX 041959 AAA
TAFMRB
TAF AMD
KMRB 041959Z 0420/0518 14013G21KT P6SM VCTS BKN050CB
     FM042200 11008KT P6SM VCTS BKN050CB BKN130
     FM050200 11006KT P6SM SCT015 BKN050
     FM050900 07005KT 5SM BR BKN008
     FM051400 09005KT P6SM BKN015
     FM051700 09005KT P6SM SCT050=

USA.gov is the U.S. government's official web portal to all federal, state and local government web resources and services.